sensor_id;sensor_type;location;lat;lon;timestamp;pressure;altitude;pressure_sealevel;temperature;humidity
66945;BME280;53853;51.982;5.928;2023-06-26T00:01:28;101141.78;;;23.48;63.39
66945;BME280;53853;51.982;5.928;2023-06-26T00:03:59;101138.72;;;23.45;63.84
66945;BME280;53853;51.982;5.928;2023-06-26T00:06:29;101131.00;;;23.42;63.58
66945;BME280;53853;51.982;5.928;2023-06-26T00:09:00;101126.03;;;23.39;63.84
66945;BME280;53853;51.982;5.928;2023-06-26T00:11:30;101125.66;;;23.35;63.89
66945;BME280;53853;51.982;5.928;2023-06-26T00:14:00;101129.66;;;23.32;64.43
66945;BME280;53853;51.982;5.928;2023-06-26T00:16:33;101115.47;;;23.30;64.24
66945;BME280;53853;51.982;5.928;2023-06-26T00:19:03;101125.13;;;23.26;64.30
66945;BME280;53853;51.982;5.928;2023-06-26T00:21:33;101119.31;;;23.23;64.41
66945;BME280;53853;51.982;5.928;2023-06-26T00:24:03;101111.59;;;23.20;64.14
66945;BME280;53853;51.982;5.928;2023-06-26T00:26:33;101111.25;;;23.16;64.25
66945;BME280;53853;51.982;5.928;2023-06-26T00:29:03;101105.44;;;23.12;64.54
66945;BME280;53853;51.982;5.928;2023-06-26T00:31:36;101098.56;;;23.10;64.64
66945;BME280;53853;51.982;5.928;2023-06-26T00:34:07;101097.06;;;23.07;64.85
66945;BME280;53853;51.982;5.928;2023-06-26T00:36:37;101093.75;;;23.05;64.93
66945;BME280;53853;51.982;5.928;2023-06-26T00:39:10;101097.75;;;23.03;65.30
66945;BME280;53853;51.982;5.928;2023-06-26T00:41:42;101098.44;;;22.98;65.29
66945;BME280;53853;51.982;5.928;2023-06-26T00:44:12;101095.13;;;22.96;65.42
66945;BME280;53853;51.982;5.928;2023-06-26T00:46:44;101088.25;;;22.93;65.99
66945;BME280;53853;51.982;5.928;2023-06-26T00:49:15;101090.59;;;22.90;65.45
66945;BME280;53853;51.982;5.928;2023-06-26T00:51:45;101091.03;;;22.87;65.80
66945;BME280;53853;51.982;5.928;2023-06-26T00:54:16;101090.66;;;22.83;65.94
66945;BME280;53853;51.982;5.928;2023-06-26T00:56:47;101101.97;;;22.80;65.75
66945;BME280;53853;51.982;5.928;2023-06-26T00:59:17;101099.47;;;22.78;65.99
66945;BME280;53853;51.982;5.928;2023-06-26T01:01:51;101097.81;;;22.77;65.89
66945;BME280;53853;51.982;5.928;2023-06-26T01:04:21;101103.25;;;22.77;65.89
66945;BME280;53853;51.982;5.928;2023-06-26T01:06:55;101097.22;;;22.75;66.87
66945;BME280;53853;51.982;5.928;2023-06-26T01:09:26;101105.38;;;22.75;66.22
66945;BME280;53853;51.982;5.928;2023-06-26T01:11:57;101101.00;;;22.74;66.61
66945;BME280;53853;51.982;5.928;2023-06-26T01:14:27;101092.44;;;22.71;66.70
66945;BME280;53853;51.982;5.928;2023-06-26T01:17:00;101086.66;;;22.67;66.60
66945;BME280;53853;51.982;5.928;2023-06-26T01:19:30;101081.66;;;22.64;67.23
66945;BME280;53853;51.982;5.928;2023-06-26T01:22:14;101084.81;;;22.61;67.48
66945;BME280;53853;51.982;5.928;2023-06-26T01:24:48;101092.38;;;22.59;67.01
66945;BME280;53853;51.982;5.928;2023-06-26T01:27:27;101083.59;;;22.57;67.68
66945;BME280;53853;51.982;5.928;2023-06-26T01:30:01;101087.59;;;22.54;68.03
66945;BME280;53853;51.982;5.928;2023-06-26T01:32:32;101082.63;;;22.51;67.74
66945;BME280;53853;51.982;5.928;2023-06-26T01:35:04;101078.44;;;22.49;68.24
66945;BME280;53853;51.982;5.928;2023-06-26T01:37:34;101079.31;;;22.49;68.38
66945;BME280;53853;51.982;5.928;2023-06-26T01:40:05;101082.84;;;22.50;67.85
66945;BME280;53853;51.982;5.928;2023-06-26T01:42:40;101091.59;;;22.52;67.94
66945;BME280;53853;51.982;5.928;2023-06-26T01:45:14;101095.16;;;22.52;67.31
66945;BME280;53853;51.982;5.928;2023-06-26T01:47:51;101101.34;;;22.59;66.48
66945;BME280;53853;51.982;5.928;2023-06-26T01:50:24;101104.44;;;22.63;66.17
66945;BME280;53853;51.982;5.928;2023-06-26T01:53:02;101102.28;;;22.72;65.12
66945;BME280;53853;51.982;5.928;2023-06-26T01:55:35;101106.59;;;22.79;64.95
66945;BME280;53853;51.982;5.928;2023-06-26T01:58:11;101103.56;;;22.88;64.85
66945;BME280;53853;51.982;5.928;2023-06-26T02:00:43;101112.31;;;22.90;64.54
66945;BME280;53853;51.982;5.928;2023-06-26T02:03:13;101113.91;;;22.97;63.79
66945;BME280;53853;51.982;5.928;2023-06-26T02:05:43;101118.69;;;23.02;63.12
66945;BME280;53853;51.982;5.928;2023-06-26T02:08:14;101121.53;;;23.07;63.00
66945;BME280;53853;51.982;5.928;2023-06-26T02:10:49;101117.81;;;23.08;62.79
66945;BME280;53853;51.982;5.928;2023-06-26T02:13:22;101135.13;;;23.07;63.04
66945;BME280;53853;51.982;5.928;2023-06-26T02:15:52;101126.97;;;23.07;62.98
66945;BME280;53853;51.982;5.928;2023-06-26T02:18:22;101128.06;;;23.06;63.06
66945;BME280;53853;51.982;5.928;2023-06-26T02:20:52;101127.44;;;23.04;63.32
66945;BME280;53853;51.982;5.928;2023-06-26T02:23:22;101132.03;;;23.04;62.25
66945;BME280;53853;51.982;5.928;2023-06-26T02:25:52;101127.88;;;23.01;61.77
66945;BME280;53853;51.982;5.928;2023-06-26T02:28:24;101126.47;;;22.98;61.09
66945;BME280;53853;51.982;5.928;2023-06-26T02:30:54;101131.03;;;22.98;61.15
66945;BME280;53853;51.982;5.928;2023-06-26T02:33:25;101126.91;;;22.95;61.26
66945;BME280;53853;51.982;5.928;2023-06-26T02:35:55;101124.41;;;22.94;61.12
66945;BME280;53853;51.982;5.928;2023-06-26T02:38:25;101125.69;;;22.91;61.17
66945;BME280;53853;51.982;5.928;2023-06-26T02:40:55;101122.59;;;22.88;61.90
66945;BME280;53853;51.982;5.928;2023-06-26T02:43:27;101130.38;;;22.84;61.72
66945;BME280;53853;51.982;5.928;2023-06-26T02:45:57;101134.81;;;22.78;61.36
66945;BME280;53853;51.982;5.928;2023-06-26T02:48:27;101131.13;;;22.73;61.84
66945;BME280;53853;51.982;5.928;2023-06-26T02:50:57;101138.03;;;22.69;61.95
66945;BME280;53853;51.982;5.928;2023-06-26T02:53:30;101139.75;;;22.63;62.02
66945;BME280;53853;51.982;5.928;2023-06-26T02:56:00;101142.31;;;22.58;62.05
66945;BME280;53853;51.982;5.928;2023-06-26T02:58:33;101139.66;;;22.51;62.30
66945;BME280;53853;51.982;5.928;2023-06-26T03:01:03;101144.94;;;22.46;62.60
66945;BME280;53853;51.982;5.928;2023-06-26T03:03:33;101147.22;;;22.42;62.73
66945;BME280;53853;51.982;5.928;2023-06-26T03:06:09;101148.16;;;22.36;62.78
66945;BME280;53853;51.982;5.928;2023-06-26T03:08:40;101149.41;;;22.34;63.18
66945;BME280;53853;51.982;5.928;2023-06-26T03:11:10;101151.06;;;22.28;63.47
66945;BME280;53853;51.982;5.928;2023-06-26T03:13:43;101159.66;;;22.25;63.34
66945;BME280;53853;51.982;5.928;2023-06-26T03:16:14;101156.78;;;22.20;63.71
66945;BME280;53853;51.982;5.928;2023-06-26T03:18:44;101162.03;;;22.15;64.02
66945;BME280;53853;51.982;5.928;2023-06-26T03:21:14;101165.19;;;22.12;64.25
66945;BME280;53853;51.982;5.928;2023-06-26T03:23:44;101163.94;;;22.07;64.36
66945;BME280;53853;51.982;5.928;2023-06-26T03:26:13;101166.66;;;22.07;64.67
66945;BME280;53853;51.982;5.928;2023-06-26T03:28:48;101168.78;;;22.05;64.69
66945;BME280;53853;51.982;5.928;2023-06-26T03:31:18;101170.88;;;22.03;64.71
66945;BME280;53853;51.982;5.928;2023-06-26T03:33:48;101177.34;;;22.02;64.95
66945;BME280;53853;51.982;5.928;2023-06-26T03:36:19;101172.34;;;21.99;65.15
66945;BME280;53853;51.982;5.928;2023-06-26T03:38:49;101172.97;;;22.01;65.22
66945;BME280;53853;51.982;5.928;2023-06-26T03:41:24;101173.44;;;21.98;65.36
66945;BME280;53853;51.982;5.928;2023-06-26T03:43:56;101161.94;;;21.96;65.52
66945;BME280;53853;51.982;5.928;2023-06-26T03:46:32;101171.56;;;21.92;65.73
66945;BME280;53853;51.982;5.928;2023-06-26T03:49:02;101160.09;;;21.90;66.10
66945;BME280;53853;51.982;5.928;2023-06-26T03:51:32;101165.94;;;21.87;65.88
66945;BME280;53853;51.982;5.928;2023-06-26T03:54:02;101168.66;;;21.87;66.07
66945;BME280;53853;51.982;5.928;2023-06-26T03:56:32;101165.94;;;21.87;66.22
66945;BME280;53853;51.982;5.928;2023-06-26T03:59:05;101167.00;;;21.86;66.60
66945;BME280;53853;51.982;5.928;2023-06-26T04:01:37;101174.09;;;21.87;66.58
66945;BME280;53853;51.982;5.928;2023-06-26T04:04:07;101170.56;;;21.86;66.86
66945;BME280;53853;51.982;5.928;2023-06-26T04:06:36;101176.38;;;21.90;66.79
66945;BME280;53853;51.982;5.928;2023-06-26T04:09:06;101172.63;;;21.91;66.57
66945;BME280;53853;51.982;5.928;2023-06-26T04:11:36;101172.84;;;21.89;66.55
66945;BME280;53853;51.982;5.928;2023-06-26T04:14:09;101186.00;;;21.86;66.76
66945;BME280;53853;51.982;5.928;2023-06-26T04:16:39;101193.50;;;21.84;66.77
66945;BME280;53853;51.982;5.928;2023-06-26T04:19:09;101197.50;;;21.81;66.89
66945;BME280;53853;51.982;5.928;2023-06-26T04:21:39;101203.75;;;21.82;67.17
66945;BME280;53853;51.982;5.928;2023-06-26T04:24:09;101203.75;;;21.82;67.31
66945;BME280;53853;51.982;5.928;2023-06-26T04:26:39;101205.00;;;21.86;67.52
66945;BME280;53853;51.982;5.928;2023-06-26T04:29:14;101212.72;;;21.89;67.16
66945;BME280;53853;51.982;5.928;2023-06-26T04:31:44;101215.84;;;21.86;67.28
66945;BME280;53853;51.982;5.928;2023-06-26T04:34:15;101216.06;;;21.84;67.75
66945;BME280;53853;51.982;5.928;2023-06-26T04:36:45;101221.75;;;21.76;67.89
66945;BME280;53853;51.982;5.928;2023-06-26T04:39:17;101225.91;;;21.72;68.18
66945;BME280;53853;51.982;5.928;2023-06-26T04:41:47;101214.25;;;21.71;68.15
66945;BME280;53853;51.982;5.928;2023-06-26T04:44:20;101220.09;;;21.68;68.38
66945;BME280;53853;51.982;5.928;2023-06-26T04:46:49;101219.03;;;21.69;68.43
66945;BME280;53853;51.982;5.928;2023-06-26T04:49:19;101209.03;;;21.70;68.30
66945;BME280;53853;51.982;5.928;2023-06-26T04:51:49;101214.25;;;21.71;68.53
66945;BME280;53853;51.982;5.928;2023-06-26T04:54:20;101217.56;;;21.74;68.64
66945;BME280;53853;51.982;5.928;2023-06-26T04:56:50;101228.41;;;21.74;68.39
66945;BME280;53853;51.982;5.928;2023-06-26T04:59:22;101234.44;;;21.76;68.35
66945;BME280;53853;51.982;5.928;2023-06-26T05:01:52;101231.75;;;21.76;68.23
66945;BME280;53853;51.982;5.928;2023-06-26T05:04:22;101231.75;;;21.76;68.33
66945;BME280;53853;51.982;5.928;2023-06-26T05:06:52;101224.47;;;21.76;68.30
66945;BME280;53853;51.982;5.928;2023-06-26T05:09:22;101231.53;;;21.77;68.04
66945;BME280;53853;51.982;5.928;2023-06-26T05:11:52;101230.09;;;21.75;68.23
66945;BME280;53853;51.982;5.928;2023-06-26T05:14:24;101236.13;;;21.77;68.18
66945;BME280;53853;51.982;5.928;2023-06-26T05:16:54;101236.53;;;21.80;67.54
66945;BME280;53853;51.982;5.928;2023-06-26T05:19:24;101238.00;;;21.83;67.58
66945;BME280;53853;51.982;5.928;2023-06-26T05:21:55;101245.69;;;21.86;67.78
66945;BME280;53853;51.982;5.928;2023-06-26T05:24:26;101251.31;;;21.91;68.05
66945;BME280;53853;51.982;5.928;2023-06-26T05:26:57;101252.34;;;21.97;67.68
66945;BME280;53853;51.982;5.928;2023-06-26T05:29:31;101262.53;;;22.01;67.32
66945;BME280;53853;51.982;5.928;2023-06-26T05:32:02;101259.59;;;22.03;67.02
66945;BME280;53853;51.982;5.928;2023-06-26T05:34:32;101267.50;;;22.04;67.25
66945;BME280;53853;51.982;5.928;2023-06-26T05:37:03;101278.78;;;22.08;67.14
66945;BME280;53853;51.982;5.928;2023-06-26T05:39:34;101284.19;;;22.15;66.96
66945;BME280;53853;51.982;5.928;2023-06-26T05:42:05;101296.88;;;22.28;66.38
66945;BME280;53853;51.982;5.928;2023-06-26T05:44:38;101282.66;;;22.32;66.02
66945;BME280;53853;51.982;5.928;2023-06-26T05:47:08;101278.47;;;22.36;66.15
66945;BME280;53853;51.982;5.928;2023-06-26T05:49:37;101290.34;;;22.42;65.50
66945;BME280;53853;51.982;5.928;2023-06-26T05:52:09;101300.38;;;22.41;65.14
66945;BME280;53853;51.982;5.928;2023-06-26T05:54:40;101297.44;;;22.43;64.67
66945;BME280;53853;51.982;5.928;2023-06-26T05:57:11;101305.16;;;22.46;63.53
66945;BME280;53853;51.982;5.928;2023-06-26T05:59:48;101302.25;;;22.41;62.48
66945;BME280;53853;51.982;5.928;2023-06-26T06:02:21;101307.47;;;22.42;62.46
66945;BME280;53853;51.982;5.928;2023-06-26T06:04:51;101322.28;;;22.47;62.25
66945;BME280;53853;51.982;5.928;2023-06-26T06:07:21;101317.03;;;22.52;62.61
66945;BME280;53853;51.982;5.928;2023-06-26T06:09:51;101326.59;;;22.61;63.03
66945;BME280;53853;51.982;5.928;2023-06-26T06:12:21;101319.25;;;22.68;62.58
66945;BME280;53853;51.982;5.928;2023-06-26T06:14:53;101323.16;;;22.72;60.31
66945;BME280;53853;51.982;5.928;2023-06-26T06:17:23;101338.66;;;22.72;59.55
66945;BME280;53853;51.982;5.928;2023-06-26T06:19:53;101342.84;;;22.68;58.25
66945;BME280;53853;51.982;5.928;2023-06-26T06:22:23;101343.50;;;22.63;58.04
66945;BME280;53853;51.982;5.928;2023-06-26T06:24:53;101346.25;;;22.56;57.79
66945;BME280;53853;51.982;5.928;2023-06-26T06:27:23;101354.63;;;22.55;58.13
66945;BME280;53853;51.982;5.928;2023-06-26T06:29:55;101349.63;;;22.52;58.45
66945;BME280;53853;51.982;5.928;2023-06-26T06:32:25;101354.00;;;22.53;57.94
66945;BME280;53853;51.982;5.928;2023-06-26T06:34:55;101362.16;;;22.53;57.62
66945;BME280;53853;51.982;5.928;2023-06-26T06:37:25;101368.63;;;22.52;57.49
66945;BME280;53853;51.982;5.928;2023-06-26T06:39:58;101369.47;;;22.52;57.52
66945;BME280;53853;51.982;5.928;2023-06-26T06:42:28;101375.53;;;22.54;57.22
66945;BME280;53853;51.982;5.928;2023-06-26T06:45:01;101379.25;;;22.60;57.17
66945;BME280;53853;51.982;5.928;2023-06-26T06:47:32;101373.38;;;22.63;55.72
66945;BME280;53853;51.982;5.928;2023-06-26T06:50:02;101375.66;;;22.66;55.60
66945;BME280;53853;51.982;5.928;2023-06-26T06:52:36;101373.56;;;22.68;55.16
66945;BME280;53853;51.982;5.928;2023-06-26T06:55:08;101384.63;;;22.73;54.98
66945;BME280;53853;51.982;5.928;2023-06-26T06:57:39;101390.06;;;22.73;54.84
66945;BME280;53853;51.982;5.928;2023-06-26T07:00:13;101394.66;;;22.73;55.44
66945;BME280;53853;51.982;5.928;2023-06-26T07:02:45;101394.03;;;22.71;55.55
66945;BME280;53853;51.982;5.928;2023-06-26T07:05:15;101403.84;;;22.72;55.62
66945;BME280;53853;51.982;5.928;2023-06-26T07:07:45;101403.22;;;22.76;55.91
66945;BME280;53853;51.982;5.928;2023-06-26T07:10:15;101405.94;;;22.76;55.60
66945;BME280;53853;51.982;5.928;2023-06-26T07:12:45;101408.44;;;22.78;55.10
66945;BME280;53853;51.982;5.928;2023-06-26T07:15:18;101407.56;;;22.77;55.69
66945;BME280;53853;51.982;5.928;2023-06-26T07:17:48;101419.09;;;22.79;56.02
66945;BME280;53853;51.982;5.928;2023-06-26T07:20:18;101410.06;;;22.86;55.42
66945;BME280;53853;51.982;5.928;2023-06-26T07:22:48;101414.63;;;22.92;54.91
66945;BME280;53853;51.982;5.928;2023-06-26T07:25:18;101413.72;;;22.98;55.11
66945;BME280;53853;51.982;5.928;2023-06-26T07:27:48;101416.44;;;23.05;55.83
66945;BME280;53853;51.982;5.928;2023-06-26T07:30:20;101421.03;;;23.11;55.02
66945;BME280;53853;51.982;5.928;2023-06-26T07:32:51;101422.84;;;23.17;55.21
66945;BME280;53853;51.982;5.928;2023-06-26T07:35:20;101438.28;;;23.23;55.37
66945;BME280;53853;51.982;5.928;2023-06-26T07:37:52;101444.75;;;23.29;54.49
66945;BME280;53853;51.982;5.928;2023-06-26T07:40:22;101439.91;;;23.31;54.29
66945;BME280;53853;51.982;5.928;2023-06-26T07:42:52;101450.94;;;23.36;55.24
66945;BME280;53853;51.982;5.928;2023-06-26T07:45:27;101446.09;;;23.45;55.30
66945;BME280;53853;51.982;5.928;2023-06-26T07:47:57;101444.81;;;23.47;54.20
66945;BME280;53853;51.982;5.928;2023-06-26T07:50:27;101436.44;;;23.49;54.84
66945;BME280;53853;51.982;5.928;2023-06-26T07:52:57;101444.31;;;23.57;55.24
66945;BME280;53853;51.982;5.928;2023-06-26T07:55:27;101435.66;;;23.67;53.46
66945;BME280;53853;51.982;5.928;2023-06-26T07:57:57;101448.81;;;23.70;53.78
66945;BME280;53853;51.982;5.928;2023-06-26T08:00:30;101455.47;;;23.74;54.16
66945;BME280;53853;51.982;5.928;2023-06-26T08:03:00;101458.81;;;23.76;53.46
66945;BME280;53853;51.982;5.928;2023-06-26T08:05:30;101464.19;;;23.83;53.37
66945;BME280;53853;51.982;5.928;2023-06-26T08:08:00;101474.91;;;23.84;53.64
66945;BME280;53853;51.982;5.928;2023-06-26T08:10:30;101470.91;;;23.87;53.68
66945;BME280;53853;51.982;5.928;2023-06-26T08:13:01;101474.47;;;23.81;52.40
66945;BME280;53853;51.982;5.928;2023-06-26T08:15:33;101471.34;;;23.77;52.53
66945;BME280;53853;51.982;5.928;2023-06-26T08:18:03;101461.28;;;23.84;53.10
66945;BME280;53853;51.982;5.928;2023-06-26T08:20:33;101461.22;;;23.91;53.27
66945;BME280;53853;51.982;5.928;2023-06-26T08:23:04;101468.66;;;24.02;52.80
66945;BME280;53853;51.982;5.928;2023-06-26T08:25:35;101458.16;;;24.06;52.12
66945;BME280;53853;51.982;5.928;2023-06-26T08:28:04;101458.91;;;24.13;52.53
66945;BME280;53853;51.982;5.928;2023-06-26T08:30:39;101475.25;;;24.13;51.13
66945;BME280;53853;51.982;5.928;2023-06-26T08:33:09;101466.84;;;24.15;51.44
66945;BME280;53853;51.982;5.928;2023-06-26T08:35:39;101479.47;;;24.09;51.49
66945;BME280;53853;51.982;5.928;2023-06-26T08:38:09;101481.00;;;24.05;51.81
66945;BME280;53853;51.982;5.928;2023-06-26T08:40:39;101487.47;;;24.04;52.61
66945;BME280;53853;51.982;5.928;2023-06-26T08:43:09;101495.50;;;23.99;52.40
66945;BME280;53853;51.982;5.928;2023-06-26T08:45:42;101491.75;;;23.93;52.45
66945;BME280;53853;51.982;5.928;2023-06-26T08:48:12;101494.53;;;23.86;52.95
66945;BME280;53853;51.982;5.928;2023-06-26T08:50:44;101496.00;;;23.89;52.71
66945;BME280;53853;51.982;5.928;2023-06-26T08:53:23;101498.00;;;24.00;52.00
66945;BME280;53853;51.982;5.928;2023-06-26T08:55:58;101499.91;;;24.00;52.46
66945;BME280;53853;51.982;5.928;2023-06-26T08:58:29;101499.66;;;24.01;52.71
66945;BME280;53853;51.982;5.928;2023-06-26T09:01:02;101500.44;;;24.09;50.35
66945;BME280;53853;51.982;5.928;2023-06-26T09:03:32;101507.03;;;24.19;50.79
66945;BME280;53853;51.982;5.928;2023-06-26T09:06:03;101503.34;;;24.32;51.50
66945;BME280;53853;51.982;5.928;2023-06-26T09:08:32;101512.50;;;24.38;50.50
66945;BME280;53853;51.982;5.928;2023-06-26T09:11:20;101515.75;;;24.47;49.17
66945;BME280;53853;51.982;5.928;2023-06-26T09:13:51;101517.97;;;24.56;48.30
66945;BME280;53853;51.982;5.928;2023-06-26T09:16:27;101521.13;;;24.53;48.23
66945;BME280;53853;51.982;5.928;2023-06-26T09:18:57;101529.16;;;24.48;47.91
66945;BME280;53853;51.982;5.928;2023-06-26T09:21:27;101518.72;;;24.45;48.30
66945;BME280;53853;51.982;5.928;2023-06-26T09:23:57;101521.50;;;24.38;47.27
66945;BME280;53853;51.982;5.928;2023-06-26T09:26:28;101532.78;;;24.42;46.93
66945;BME280;53853;51.982;5.928;2023-06-26T09:28:58;101533.16;;;24.46;44.63
66945;BME280;53853;51.982;5.928;2023-06-26T09:31:30;101547.47;;;24.41;45.75
66945;BME280;53853;51.982;5.928;2023-06-26T09:34:03;101546.31;;;24.30;44.09
66945;BME280;53853;51.982;5.928;2023-06-26T09:36:33;101546.44;;;24.17;43.92
66945;BME280;53853;51.982;5.928;2023-06-26T09:39:05;101550.03;;;24.11;44.45
66945;BME280;53853;51.982;5.928;2023-06-26T09:41:37;101542.28;;;24.14;45.14
66945;BME280;53853;51.982;5.928;2023-06-26T09:44:09;101559.16;;;24.23;44.30
66945;BME280;53853;51.982;5.928;2023-06-26T09:46:45;101555.75;;;24.28;42.94
66945;BME280;53853;51.982;5.928;2023-06-26T09:49:16;101553.19;;;24.33;43.38
66945;BME280;53853;51.982;5.928;2023-06-26T09:51:46;101558.38;;;24.41;44.08
66945;BME280;53853;51.982;5.928;2023-06-26T09:54:17;101564.56;;;24.48;43.74
66945;BME280;53853;51.982;5.928;2023-06-26T09:56:47;101563.53;;;24.49;43.56
66945;BME280;53853;51.982;5.928;2023-06-26T09:59:17;101570.09;;;24.41;43.56
66945;BME280;53853;51.982;5.928;2023-06-26T10:01:59;101566.78;;;24.39;44.08
66945;BME280;53853;51.982;5.928;2023-06-26T10:04:29;101563.38;;;24.44;43.79
66945;BME280;53853;51.982;5.928;2023-06-26T10:07:02;101568.13;;;24.49;43.22
66945;BME280;53853;51.982;5.928;2023-06-26T10:09:37;101577.16;;;24.49;44.28
66945;BME280;53853;51.982;5.928;2023-06-26T10:12:11;101580.16;;;24.41;44.77
66945;BME280;53853;51.982;5.928;2023-06-26T10:14:42;101590.28;;;24.34;43.90
66945;BME280;53853;51.982;5.928;2023-06-26T10:17:19;101590.13;;;24.29;44.53
66945;BME280;53853;51.982;5.928;2023-06-26T10:19:49;101591.63;;;24.24;44.69
66945;BME280;53853;51.982;5.928;2023-06-26T10:22:21;101594.56;;;24.23;43.27
66945;BME280;53853;51.982;5.928;2023-06-26T10:24:53;101595.56;;;24.29;44.12
66945;BME280;53853;51.982;5.928;2023-06-26T10:27:27;101589.84;;;24.37;43.65
66945;BME280;53853;51.982;5.928;2023-06-26T10:30:02;101590.63;;;24.44;43.53
66945;BME280;53853;51.982;5.928;2023-06-26T10:32:35;101600.78;;;24.55;43.96
66945;BME280;53853;51.982;5.928;2023-06-26T10:35:07;101591.75;;;24.62;41.71
66945;BME280;53853;51.982;5.928;2023-06-26T10:37:44;101593.25;;;24.57;41.46
66945;BME280;53853;51.982;5.928;2023-06-26T10:40:22;101607.91;;;24.56;41.08
66945;BME280;53853;51.982;5.928;2023-06-26T10:43:06;101603.91;;;24.59;41.41
66945;BME280;53853;51.982;5.928;2023-06-26T10:45:44;101597.63;;;24.58;41.76
66945;BME280;53853;51.982;5.928;2023-06-26T10:48:22;101593.75;;;24.66;41.40
66945;BME280;53853;51.982;5.928;2023-06-26T10:50:57;101596.59;;;24.78;41.04
66945;BME280;53853;51.982;5.928;2023-06-26T10:53:45;101597.72;;;24.89;39.51
66945;BME280;53853;51.982;5.928;2023-06-26T10:56:19;101600.25;;;24.90;38.68
66945;BME280;53853;51.982;5.928;2023-06-26T10:58:51;101601.44;;;24.94;39.45
66945;BME280;53853;51.982;5.928;2023-06-26T11:01:40;101604.94;;;25.02;40.32
66945;BME280;53853;51.982;5.928;2023-06-26T11:04:14;101612.66;;;25.05;39.39
66945;BME280;53853;51.982;5.928;2023-06-26T11:06:47;101613.84;;;25.09;38.65
66945;BME280;53853;51.982;5.928;2023-06-26T11:09:23;101614.94;;;25.08;37.03
66945;BME280;53853;51.982;5.928;2023-06-26T11:11:58;101620.75;;;25.11;37.89
66945;BME280;53853;51.982;5.928;2023-06-26T11:14:32;101617.19;;;25.11;38.19
66945;BME280;53853;51.982;5.928;2023-06-26T11:17:05;101632.03;;;25.15;38.81
66945;BME280;53853;51.982;5.928;2023-06-26T11:19:43;101630.75;;;25.18;37.15
66945;BME280;53853;51.982;5.928;2023-06-26T11:22:14;101635.16;;;25.19;38.31
66945;BME280;53853;51.982;5.928;2023-06-26T11:24:45;101623.72;;;25.28;39.17
66945;BME280;53853;51.982;5.928;2023-06-26T11:27:15;101625.81;;;25.26;37.70
66945;BME280;53853;51.982;5.928;2023-06-26T11:29:48;101627.88;;;25.31;37.37
66945;BME280;53853;51.982;5.928;2023-06-26T11:32:18;101625.53;;;25.35;37.85
66945;BME280;53853;51.982;5.928;2023-06-26T11:34:53;101644.47;;;25.29;35.80
66945;BME280;53853;51.982;5.928;2023-06-26T11:37:24;101653.25;;;25.13;34.80
66945;BME280;53853;51.982;5.928;2023-06-26T11:39:53;101657.78;;;25.01;35.74
66945;BME280;53853;51.982;5.928;2023-06-26T11:42:24;101663.41;;;24.87;35.92
66945;BME280;53853;51.982;5.928;2023-06-26T11:44:54;101660.03;;;24.85;37.01
66945;BME280;53853;51.982;5.928;2023-06-26T11:47:25;101665.66;;;24.90;37.69
66945;BME280;53853;51.982;5.928;2023-06-26T11:49:58;101679.22;;;24.97;37.71
66945;BME280;53853;51.982;5.928;2023-06-26T11:52:28;101676.81;;;24.89;36.57
66945;BME280;53853;51.982;5.928;2023-06-26T11:54:58;101674.22;;;24.94;37.57
66945;BME280;53853;51.982;5.928;2023-06-26T11:57:31;101684.00;;;25.02;37.31
66945;BME280;53853;51.982;5.928;2023-06-26T12:00:11;101675.06;;;25.13;37.86
66945;BME280;53853;51.982;5.928;2023-06-26T12:02:41;101677.03;;;25.24;37.79
66945;BME280;53853;51.982;5.928;2023-06-26T12:05:15;101687.13;;;25.24;37.47
66945;BME280;53853;51.982;5.928;2023-06-26T12:07:47;101685.38;;;25.11;36.68
66945;BME280;53853;51.982;5.928;2023-06-26T12:10:18;101684.16;;;25.07;36.77
66945;BME280;53853;51.982;5.928;2023-06-26T12:12:49;101689.63;;;25.07;35.98
66945;BME280;53853;51.982;5.928;2023-06-26T12:15:20;101691.44;;;25.13;36.46
66945;BME280;53853;51.982;5.928;2023-06-26T12:17:50;101695.09;;;25.25;37.17
66945;BME280;53853;51.982;5.928;2023-06-26T12:20:23;101691.63;;;25.37;36.86
66945;BME280;53853;51.982;5.928;2023-06-26T12:22:53;101697.09;;;25.37;36.81
66945;BME280;53853;51.982;5.928;2023-06-26T12:25:24;101707.78;;;25.38;36.72
66945;BME280;53853;51.982;5.928;2023-06-26T12:27:53;101702.41;;;25.31;36.76
66945;BME280;53853;51.982;5.928;2023-06-26T12:30:23;101709.31;;;25.27;36.59
66945;BME280;53853;51.982;5.928;2023-06-26T12:32:54;101709.03;;;25.17;36.52
66945;BME280;53853;51.982;5.928;2023-06-26T12:35:26;101703.03;;;25.08;36.31
66945;BME280;53853;51.982;5.928;2023-06-26T12:37:56;101710.38;;;25.08;36.88
66945;BME280;53853;51.982;5.928;2023-06-26T12:40:26;101699.78;;;25.18;37.58
66945;BME280;53853;51.982;5.928;2023-06-26T12:42:56;101703.88;;;25.27;36.31
66945;BME280;53853;51.982;5.928;2023-06-26T12:45:26;101700.88;;;25.36;36.62
66945;BME280;53853;51.982;5.928;2023-06-26T12:48:07;101697.91;;;25.37;35.52
66945;BME280;53853;51.982;5.928;2023-06-26T12:50:44;101696.72;;;25.26;35.32
66945;BME280;53853;51.982;5.928;2023-06-26T12:53:14;101706.09;;;25.19;35.73
66945;BME280;53853;51.982;5.928;2023-06-26T12:55:44;101704.78;;;25.21;36.56
66945;BME280;53853;51.982;5.928;2023-06-26T12:58:14;101714.94;;;25.14;36.62
66945;BME280;53853;51.982;5.928;2023-06-26T13:00:44;101719.84;;;25.05;36.52
66945;BME280;53853;51.982;5.928;2023-06-26T13:03:14;101715.28;;;24.99;37.34
66945;BME280;53853;51.982;5.928;2023-06-26T13:05:47;101721.59;;;25.00;37.44
66945;BME280;53853;51.982;5.928;2023-06-26T13:08:17;101714.31;;;24.93;37.45
66945;BME280;53853;51.982;5.928;2023-06-26T13:10:47;101710.78;;;24.86;37.25
66945;BME280;53853;51.982;5.928;2023-06-26T13:13:17;101711.97;;;24.72;38.09